Time;durP1;ratioP1;P1;durP2;ratioP2;P2;SDS_P1;SDS_P2;PMS_P1;PMS_P2;Temp;Humidity;BMP_temperature;BMP_pressure;BME280_temperature;BME280_humidity;BME280_pressure;Samples;Min_cycle;Max_cycle;Signal;HPM_P1;HPM_P2
2022/07/30 00:02:24;;;;;;;;;;;16.20;99.90;;;;;;4917730;29;19929;-81
2022/07/30 00:04:50;;;;;;;;;;;16.20;99.90;;;;;;4911392;29;20069;-81
2022/07/30 00:07:16;;;;;;;;;;;16.20;99.90;;;;;;4922621;29;19919;-81
2022/07/30 00:09:41;;;;;;;;;;;16.20;99.90;;;;;;4924200;29;19982;-81
2022/07/30 00:12:07;;;;;;;;;;;16.20;99.90;;;;;;4931079;29;19914;-81
2022/07/30 00:14:36;;;;;;;;;;;16.20;99.90;;;;;;4914779;29;19957;-81
2022/07/30 00:17:02;;;;;;;;;;;16.20;99.90;;;;;;4928471;29;19911;-80
2022/07/30 00:19:28;;;;;;;;;;;16.20;99.90;;;;;;4919769;29;19967;-81
2022/07/30 00:21:54;;;;;;;;;;;16.10;99.90;;;;;;4915434;29;19919;-82
2022/07/30 00:24:20;;;;;;;;;;;16.10;99.90;;;;;;4920202;29;19922;-82
2022/07/30 00:26:45;;;;;;;;;;;16.10;99.90;;;;;;4929502;29;20307;-81
2022/07/30 00:29:11;;;;;;;;;;;16.10;99.90;;;;;;4913606;29;19911;-81
2022/07/30 00:31:37;;;;;;;;;;;16.10;99.90;;;;;;4923383;29;19926;-81
2022/07/30 00:34:02;;;;;;;;;;;16.10;99.90;;;;;;4913979;29;19915;-81
2022/07/30 00:36:28;;;;;;;;;;;16.10;99.90;;;;;;4931859;29;19918;-81
2022/07/30 00:38:54;;;;;;;;;;;16.10;99.90;;;;;;4915811;29;19934;-81
2022/07/30 00:41:19;;;;;;;;;;;16.10;99.90;;;;;;4928285;29;20013;-81
2022/07/30 00:43:45;;;;;;;;;;;16.10;99.90;;;;;;4931134;29;19918;-82
2022/07/30 00:46:11;;;;;;;;;;;16.20;99.90;;;;;;4921912;29;20021;-82
2022/07/30 00:48:36;;;;;;;;;;;16.20;99.90;;;;;;4915855;29;20338;-81
2022/07/30 00:51:02;;;;;;;;;;;16.20;99.90;;;;;;4901068;29;19915;-81
2022/07/30 00:53:28;;;;;;;;;;;16.20;99.90;;;;;;4931694;29;19911;-81
2022/07/30 00:55:53;;;;;;;;;;;16.20;99.90;;;;;;4933162;29;19915;-81
2022/07/30 00:58:19;;;;;;;;;;;16.20;99.90;;;;;;4928690;29;20009;-81
2022/07/30 01:00:45;;;;;;;;;;;16.20;99.90;;;;;;4917985;29;19911;-81
2022/07/30 01:03:10;;;;;;;;;;;16.20;99.90;;;;;;4897954;29;19918;-79
2022/07/30 01:05:36;;;;;;;;;;;16.20;99.90;;;;;;4932410;29;19918;-83
2022/07/30 01:08:02;;;;;;;;;;;16.20;99.90;;;;;;4926859;29;19961;-82
2022/07/30 01:10:27;;;;;;;;;;;16.20;99.90;;;;;;4916188;29;19942;-81
2022/07/30 01:12:53;;;;;;;;;;;16.20;99.90;;;;;;4915993;29;19999;-81
2022/07/30 01:15:19;;;;;;;;;;;16.20;99.90;;;;;;4932234;29;20426;-81
2022/07/30 01:17:48;;;;;;;;;;;16.20;99.90;;;;;;4930673;29;19918;-81
2022/07/30 01:20:16;;;;;;;;;;;16.20;99.90;;;;;;4931529;29;20383;-81
2022/07/30 01:22:49;;;;;;;;;;;16.20;99.90;;;;;;4916046;29;19934;-81
2022/07/30 01:25:19;;;;;;;;;;;16.20;99.90;;;;;;4916114;29;20138;-81
2022/07/30 01:27:53;;;;;;;;;;;16.20;99.90;;;;;;4928092;29;19911;-81
2022/07/30 01:30:21;;;;;;;;;;;16.20;99.90;;;;;;4930103;29;19954;-81
2022/07/30 01:32:48;;;;;;;;;;;16.20;99.90;;;;;;4915405;29;19957;-80
2022/07/30 01:35:15;;;;;;;;;;;16.20;99.90;;;;;;4900359;29;19942;-81
2022/07/30 01:37:41;;;;;;;;;;;16.20;99.90;;;;;;4918578;29;20395;-81
2022/07/30 01:40:07;;;;;;;;;;;16.20;99.90;;;;;;4900493;29;19915;-83
2022/07/30 01:42:35;;;;;;;;;;;16.20;99.90;;;;;;4915909;29;19974;-81
2022/07/30 01:45:01;;;;;;;;;;;16.20;99.90;;;;;;4936071;29;20020;-81
2022/07/30 01:47:28;;;;;;;;;;;16.20;99.90;;;;;;4919582;29;20426;-81
2022/07/30 01:49:54;;;;;;;;;;;16.20;99.90;;;;;;4905778;29;19941;-81
2022/07/30 01:52:21;;;;;;;;;;;16.20;99.90;;;;;;4903431;29;20326;-81
2022/07/30 01:54:48;;;;;;;;;;;16.20;99.90;;;;;;4932275;29;19918;-83
2022/07/30 01:57:15;;;;;;;;;;;16.10;99.90;;;;;;4931778;29;19971;-81
2022/07/30 01:59:42;;;;;;;;;;;16.10;99.90;;;;;;4920028;29;19915;-81
2022/07/30 02:02:08;;;;;;;;;;;16.10;99.90;;;;;;4934226;29;19910;-81
2022/07/30 02:04:33;;;;;;;;;;;16.00;99.90;;;;;;4920639;29;19977;-83
2022/07/30 02:07:05;;;;;;;;;;;16.00;99.90;;;;;;4919700;29;19915;-82
2022/07/30 02:09:42;;;;;;;;;;;15.90;99.90;;;;;;4917096;29;19954;-81
2022/07/30 02:12:29;;;;;;;;;;;16.00;99.90;;;;;;4917201;29;20001;-82
2022/07/30 02:15:09;;;;;;;;;;;15.90;99.90;;;;;;4921681;29;19966;-82
2022/07/30 02:17:40;;;;;;;;;;;15.90;99.90;;;;;;4916096;29;19953;-81
2022/07/30 02:20:08;;;;;;;;;;;15.90;99.90;;;;;;4935929;29;19911;-81
2022/07/30 02:22:36;;;;;;;;;;;15.90;99.90;;;;;;4918473;29;19959;-80
2022/07/30 02:25:02;;;;;;;;;;;15.80;99.90;;;;;;4932105;29;20547;-80
2022/07/30 02:27:34;;;;;;;;;;;15.90;99.90;;;;;;4917982;29;19914;-80
2022/07/30 02:30:01;;;;;;;;;;;15.90;99.90;;;;;;4916331;29;20402;-81
2022/07/30 02:32:29;;;;;;;;;;;15.90;99.90;;;;;;4936153;29;19918;-81
2022/07/30 02:34:57;;;;;;;;;;;15.90;99.90;;;;;;4926724;29;19919;-80
2022/07/30 02:37:25;;;;;;;;;;;15.90;99.90;;;;;;4914749;29;20066;-80
2022/07/30 02:39:52;;;;;;;;;;;15.90;99.90;;;;;;4928720;29;19922;-80
2022/07/30 02:42:18;;;;;;;;;;;15.90;99.90;;;;;;4932569;29;19982;-82
2022/07/30 02:44:44;;;;;;;;;;;15.90;99.90;;;;;;4918205;29;19987;-80
2022/07/30 02:47:11;;;;;;;;;;;15.90;99.90;;;;;;4900980;29;19915;-80
2022/07/30 02:49:57;;;;;;;;;;;15.90;99.90;;;;;;4917691;29;19911;-81
2022/07/30 02:52:24;;;;;;;;;;;15.90;99.90;;;;;;4932676;29;19918;-80
2022/07/30 02:54:51;;;;;;;;;;;15.80;99.90;;;;;;4918277;29;19974;-80
2022/07/30 02:57:18;;;;;;;;;;;15.80;99.90;;;;;;4924495;29;19911;-80
2022/07/30 02:59:45;;;;;;;;;;;15.80;99.90;;;;;;4918479;29;20376;-80
2022/07/30 03:02:11;;;;;;;;;;;15.90;99.90;;;;;;4918133;29;19921;-81
2022/07/30 03:04:38;;;;;;;;;;;15.90;99.90;;;;;;4914882;29;19915;-80
2022/07/30 03:07:04;;;;;;;;;;;15.90;99.90;;;;;;4931815;29;19918;-80
2022/07/30 03:09:30;;;;;;;;;;;15.90;99.90;;;;;;4917865;29;20053;-80
2022/07/30 03:11:56;;;;;;;;;;;15.90;99.90;;;;;;4932553;29;19961;-81
2022/07/30 03:14:22;;;;;;;;;;;15.90;99.90;;;;;;4916641;29;19919;-83
2022/07/30 03:16:51;;;;;;;;;;;16.00;99.90;;;;;;4926865;29;19911;-80
2022/07/30 03:19:19;;;;;;;;;;;16.00;99.90;;;;;;4914201;29;19911;-81
2022/07/30 03:21:46;;;;;;;;;;;16.00;99.90;;;;;;4922617;29;19942;-82
2022/07/30 03:24:12;;;;;;;;;;;16.00;99.90;;;;;;4915003;29;19923;-81
2022/07/30 03:26:39;;;;;;;;;;;16.00;99.90;;;;;;4912675;29;20451;-80
2022/07/30 03:29:07;;;;;;;;;;;16.00;99.90;;;;;;4929748;29;19958;-81
2022/07/30 03:31:33;;;;;;;;;;;16.00;99.90;;;;;;4901486;29;20363;-81
2022/07/30 03:34:00;;;;;;;;;;;16.00;99.90;;;;;;4932268;29;20441;-81
2022/07/30 03:36:26;;;;;;;;;;;16.00;99.90;;;;;;4916226;29;19915;-80
2022/07/30 03:38:52;;;;;;;;;;;16.10;99.90;;;;;;4910781;29;19977;-80
2022/07/30 03:41:18;;;;;;;;;;;16.10;99.90;;;;;;4900904;29;19999;-80
2022/07/30 03:43:45;;;;;;;;;;;16.10;99.90;;;;;;4897326;29;19926;-80
2022/07/30 03:46:11;;;;;;;;;;;16.10;99.90;;;;;;4920138;29;20005;-81
2022/07/30 03:48:40;;;;;;;;;;;16.00;99.90;;;;;;4915203;29;20126;-80
2022/07/30 03:51:08;;;;;;;;;;;16.00;99.90;;;;;;4922312;29;20391;-81
2022/07/30 03:53:38;;;;;;;;;;;16.00;99.90;;;;;;4916470;29;20010;-82
2022/07/30 03:56:23;;;;;;;;;;;16.00;99.90;;;;;;4930487;29;20028;-80
2022/07/30 03:58:54;;;;;;;;;;;16.00;99.90;;;;;;4928721;29;19943;-80
2022/07/30 04:01:24;;;;;;;;;;;16.00;99.90;;;;;;4913898;29;20270;-81
2022/07/30 04:03:50;;;;;;;;;;;16.00;99.90;;;;;;4916157;29;20335;-81
2022/07/30 04:06:16;;;;;;;;;;;16.00;99.90;;;;;;4911596;29;19921;-81
2022/07/30 04:08:42;;;;;;;;;;;16.00;99.90;;;;;;4915922;29;19915;-81
2022/07/30 04:11:08;;;;;;;;;;;16.00;99.90;;;;;;4909993;29;19943;-80
2022/07/30 04:14:06;;;;;;;;;;;16.00;99.90;;;;;;4916446;29;19915;-81
2022/07/30 04:16:45;;;;;;;;;;;16.00;99.90;;;;;;4916125;29;19915;-81
2022/07/30 04:19:18;;;;;;;;;;;16.00;99.90;;;;;;4932066;29;19954;-81
2022/07/30 04:21:45;;;;;;;;;;;16.00;99.90;;;;;;4913358;29;19949;-80
2022/07/30 04:24:11;;;;;;;;;;;16.00;99.90;;;;;;4913337;29;20400;-81
2022/07/30 04:26:37;;;;;;;;;;;16.00;99.90;;;;;;4907182;29;19915;-81
2022/07/30 04:29:04;;;;;;;;;;;16.00;99.90;;;;;;4916332;29;20038;-80
2022/07/30 04:31:34;;;;;;;;;;;16.00;99.90;;;;;;4931932;29;19914;-81
2022/07/30 04:34:07;;;;;;;;;;;16.00;99.90;;;;;;4898644;29;19915;-80
2022/07/30 04:36:38;;;;;;;;;;;16.00;99.90;;;;;;4922559;29;20324;-81
2022/07/30 04:39:05;;;;;;;;;;;16.00;99.90;;;;;;4922063;29;20386;-80
2022/07/30 04:41:30;;;;;;;;;;;16.00;99.90;;;;;;4916748;29;19910;-80
2022/07/30 04:44:23;;;;;;;;;;;16.10;99.90;;;;;;4915432;29;19918;-80
2022/07/30 04:47:08;;;;;;;;;;;16.10;99.90;;;;;;4925692;29;19985;-80
2022/07/30 04:49:40;;;;;;;;;;;16.10;99.90;;;;;;4908209;29;19950;-81
2022/07/30 04:52:07;;;;;;;;;;;16.20;99.90;;;;;;4928088;29;19911;-79
2022/07/30 04:54:37;;;;;;;;;;;16.20;99.90;;;;;;4912759;29;19997;-80
2022/07/30 04:57:03;;;;;;;;;;;16.20;99.90;;;;;;4914689;29;19911;-81
2022/07/30 04:59:29;;;;;;;;;;;16.20;99.90;;;;;;4900016;29;19922;-80
2022/07/30 05:01:56;;;;;;;;;;;16.20;99.90;;;;;;4931174;29;20303;-80
2022/07/30 05:04:22;;;;;;;;;;;16.20;99.90;;;;;;4900284;29;19918;-80
2022/07/30 05:06:49;;;;;;;;;;;16.30;99.90;;;;;;4928348;29;19994;-81
2022/07/30 05:09:14;;;;;;;;;;;16.30;99.90;;;;;;4915399;29;20365;-80
2022/07/30 05:11:40;;;;;;;;;;;16.30;99.90;;;;;;4932871;29;19915;-80
2022/07/30 05:14:06;;;;;;;;;;;16.40;99.90;;;;;;4901281;29;19997;-81
2022/07/30 05:16:33;;;;;;;;;;;16.50;99.90;;;;;;4933686;29;19933;-81
2022/07/30 05:19:00;;;;;;;;;;;16.60;99.90;;;;;;4929589;29;19921;-80
2022/07/30 05:21:26;;;;;;;;;;;16.60;99.90;;;;;;4917536;29;20013;-80
2022/07/30 05:23:51;;;;;;;;;;;16.70;99.90;;;;;;4934579;29;19918;-80
2022/07/30 05:26:23;;;;;;;;;;;16.70;99.90;;;;;;4903825;29;20002;-80
2022/07/30 05:28:51;;;;;;;;;;;16.80;99.90;;;;;;4935257;29;19954;-81
2022/07/30 05:31:19;;;;;;;;;;;16.90;99.90;;;;;;4916228;29;19911;-81
2022/07/30 05:33:52;;;;;;;;;;;16.90;99.90;;;;;;4919246;29;20013;-81
2022/07/30 05:36:22;;;;;;;;;;;17.00;99.90;;;;;;4913790;29;19919;-81
2022/07/30 05:38:49;;;;;;;;;;;17.00;99.90;;;;;;4917919;29;20467;-81
2022/07/30 05:41:29;;;;;;;;;;;17.20;99.90;;;;;;4934208;29;19925;-81
2022/07/30 05:44:05;;;;;;;;;;;17.30;99.90;;;;;;4919865;29;19918;-82
2022/07/30 05:46:31;;;;;;;;;;;17.40;99.90;;;;;;4916904;29;20876;-81
2022/07/30 05:48:58;;;;;;;;;;;17.40;99.90;;;;;;4928058;29;19913;-81
2022/07/30 05:51:23;;;;;;;;;;;17.50;99.90;;;;;;4931397;29;20005;-82
2022/07/30 05:53:49;;;;;;;;;;;17.60;99.90;;;;;;4917516;29;19923;-81
2022/07/30 05:56:24;;;;;;;;;;;17.70;99.90;;;;;;4919437;29;19914;-81
2022/07/30 05:59:09;;;;;;;;;;;17.80;99.90;;;;;;4914635;29;20275;-81
2022/07/30 06:02:05;;;;;;;;;;;17.80;99.90;;;;;;4923892;29;19911;-82
2022/07/30 06:04:55;;;;;;;;;;;18.00;99.90;;;;;;4933599;29;19989;-82
2022/07/30 06:07:22;;;;;;;;;;;17.90;99.90;;;;;;4929416;29;19911;-81
2022/07/30 06:09:47;;;;;;;;;;;17.90;99.90;;;;;;4928291;29;19906;-82
2022/07/30 06:12:13;;;;;;;;;;;18.10;99.90;;;;;;4904245;29;20006;-82
2022/07/30 06:14:40;;;;;;;;;;;18.30;99.90;;;;;;4921822;29;20327;-83
2022/07/30 06:17:06;;;;;;;;;;;18.40;99.90;;;;;;4917495;29;19965;-83
2022/07/30 06:19:52;;;;;;;;;;;18.50;99.90;;;;;;4924320;29;19919;-83
2022/07/30 06:22:20;;;;;;;;;;;18.70;99.90;;;;;;4919795;29;19926;-84
2022/07/30 06:24:47;;;;;;;;;;;18.80;99.90;;;;;;4923221;29;19925;-82
2022/07/30 06:27:17;;;;;;;;;;;18.80;99.90;;;;;;4908809;29;19961;-84
2022/07/30 06:29:43;;;;;;;;;;;18.80;99.90;;;;;;4901002;29;19915;-82
2022/07/30 06:32:09;;;;;;;;;;;18.90;99.90;;;;;;4914748;29;19921;-83
2022/07/30 06:34:34;;;;;;;;;;;19.00;99.90;;;;;;4919274;29;19919;-83
2022/07/30 06:37:00;;;;;;;;;;;19.00;99.90;;;;;;4910625;29;19918;-84
2022/07/30 06:39:26;;;;;;;;;;;19.30;99.90;;;;;;4901925;29;19914;-83
2022/07/30 06:41:52;;;;;;;;;;;19.70;99.90;;;;;;4936566;29;19970;-85
2022/07/30 06:44:18;;;;;;;;;;;20.40;99.90;;;;;;4924288;29;19925;-83
2022/07/30 06:46:46;;;;;;;;;;;21.00;99.90;;;;;;4922020;29;19921;-84
2022/07/30 06:49:12;;;;;;;;;;;21.30;99.90;;;;;;4903942;29;19915;-84
2022/07/30 06:51:38;;;;;;;;;;;21.30;99.90;;;;;;4921384;29;20299;-84
2022/07/30 06:54:03;;;;;;;;;;;21.10;99.90;;;;;;4927111;28;19914;-85
2022/07/30 06:56:36;;;;;;;;;;;20.80;99.90;;;;;;4937017;29;20045;-83
2022/07/30 06:59:03;;;;;;;;;;;20.60;99.90;;;;;;4917422;29;20463;-84
2022/07/30 07:01:56;;;;;;;;;;;20.40;99.90;;;;;;4923104;29;19915;-83
2022/07/30 07:04:22;;;;;;;;;;;20.20;99.90;;;;;;4922743;29;19923;-83
2022/07/30 07:06:48;;;;;;;;;;;20.00;99.90;;;;;;4923319;29;20435;-84
2022/07/30 07:09:24;;;;;;;;;;;19.80;99.90;;;;;;4919304;29;19915;-84
2022/07/30 07:15:36;;;;;;;;;;;19.60;99.90;;;;;;4936494;28;19921;-83
2022/07/30 07:18:02;;;;;;;;;;;19.90;99.90;;;;;;4925844;29;19919;-84
2022/07/30 07:29:21;;;;;;;;;;;22.30;99.90;;;;;;4967818;28;19977;-81
2022/07/30 07:31:47;;;;;;;;;;;22.20;99.90;;;;;;4950264;28;19918;-82
2022/07/30 07:34:13;;;;;;;;;;;21.90;99.90;;;;;;4954634;28;19968;-84
2022/07/30 07:36:38;;;;;;;;;;;21.80;99.90;;;;;;4940302;28;19917;-83
2022/07/30 07:39:08;;;;;;;;;;;21.90;99.90;;;;;;4934540;29;19984;-84
2022/07/30 07:41:36;;;;;;;;;;;22.50;99.90;;;;;;4951935;28;19957;-81
2022/07/30 07:44:03;;;;;;;;;;;23.10;99.90;;;;;;4962721;28;19969;-85
2022/07/30 07:46:31;;;;;;;;;;;23.50;99.90;;;;;;4935001;29;20411;-82
2022/07/30 07:48:57;;;;;;;;;;;23.50;99.90;;;;;;4954194;28;20057;-82
2022/07/30 07:51:34;;;;;;;;;;;23.30;99.90;;;;;;4951697;28;20041;-86
2022/07/30 07:54:01;;;;;;;;;;;23.00;99.90;;;;;;4945975;28;20139;-82
2022/07/30 07:56:26;;;;;;;;;;;22.50;99.90;;;;;;4940567;28;19910;-83
2022/07/30 07:58:53;;;;;;;;;;;22.10;99.90;;;;;;4926528;29;19972;-84
2022/07/30 08:01:20;;;;;;;;;;;22.00;99.90;;;;;;4958037;28;19918;-81
2022/07/30 08:04:04;;;;;;;;;;;22.00;99.90;;;;;;4927865;29;20190;-82
2022/07/30 08:06:49;;;;;;;;;;;22.30;99.90;;;;;;4928673;28;20001;-81
2022/07/30 08:09:44;;;;;;;;;;;22.50;99.90;;;;;;4948155;28;20334;-82
2022/07/30 08:12:32;;;;;;;;;;;22.70;99.90;;;;;;4952403;28;20307;-81
2022/07/30 08:15:16;;;;;;;;;;;22.80;99.90;;;;;;4940279;28;19934;-80
2022/07/30 08:18:00;;;;;;;;;;;22.80;99.90;;;;;;4943981;28;19915;-80
2022/07/30 08:20:52;;;;;;;;;;;22.80;99.90;;;;;;4936123;28;19941;-83
2022/07/30 08:23:23;;;;;;;;;;;22.80;99.90;;;;;;4943917;28;19918;-81
2022/07/30 08:25:49;;;;;;;;;;;22.80;99.90;;;;;;4937812;28;19922;-79
2022/07/30 08:28:15;;;;;;;;;;;22.80;99.90;;;;;;4944585;28;19965;-82
2022/07/30 08:30:40;;;;;;;;;;;22.80;99.90;;;;;;4942369;28;19910;-81
2022/07/30 08:33:06;;;;;;;;;;;22.70;99.90;;;;;;4910933;29;19969;-80
2022/07/30 08:35:32;;;;;;;;;;;22.50;99.90;;;;;;4940564;28;19930;-81
2022/07/30 08:37:57;;;;;;;;;;;22.20;99.90;;;;;;4935559;28;19923;-80
2022/07/30 08:40:24;;;;;;;;;;;22.10;99.90;;;;;;4923722;29;19961;-82
2022/07/30 08:42:57;;;;;;;;;;;22.10;99.90;;;;;;4943304;28;19915;-82
2022/07/30 08:45:24;;;;;;;;;;;22.20;99.90;;;;;;4937109;28;19915;-80
2022/07/30 08:47:51;;;;;;;;;;;22.30;99.90;;;;;;4957600;28;19911;-81
2022/07/30 08:50:26;;;;;;;;;;;22.40;99.90;;;;;;4938985;29;19929;-82
2022/07/30 08:53:16;;;;;;;;;;;22.30;99.90;;;;;;4939009;28;19991;-82
2022/07/30 08:55:42;;;;;;;;;;;22.20;99.90;;;;;;4954649;28;20478;-81
2022/07/30 08:58:26;;;;;;;;;;;22.20;99.90;;;;;;4941699;29;19925;-81
2022/07/30 09:00:52;;;;;;;;;;;22.20;99.90;;;;;;4942933;28;19985;-80
2022/07/30 09:03:18;;;;;;;;;;;22.20;99.90;;;;;;4941382;29;19946;-81
2022/07/30 09:05:45;;;;;;;;;;;22.20;99.90;;;;;;4959645;28;20012;-81
2022/07/30 09:08:11;;;;;;;;;;;22.10;99.90;;;;;;4934996;28;20004;-81
2022/07/30 09:10:37;;;;;;;;;;;21.90;99.90;;;;;;4941901;28;19990;-81
2022/07/30 09:13:02;;;;;;;;;;;21.80;99.90;;;;;;4943002;28;19946;-83
2022/07/30 09:15:28;;;;;;;;;;;21.80;99.90;;;;;;4942088;28;20555;-83
2022/07/30 09:17:55;;;;;;;;;;;22.00;99.90;;;;;;4926935;29;19921;-82
2022/07/30 09:20:23;;;;;;;;;;;21.90;99.90;;;;;;4940437;28;19910;-81
2022/07/30 09:22:50;;;;;;;;;;;21.80;99.90;;;;;;4940978;29;19937;-83
2022/07/30 09:25:37;;;;;;;;;;;21.60;99.90;;;;;;4938194;28;19929;-81
2022/07/30 09:28:27;;;;;;;;;;;21.30;99.90;;;;;;4936055;29;20025;-82
2022/07/30 09:31:11;;;;;;;;;;;21.20;99.90;;;;;;4938614;29;20393;-80
2022/07/30 09:33:56;;;;;;;;;;;21.10;99.90;;;;;;4949731;29;19929;-81
2022/07/30 09:36:57;;;;;;;;;;;21.10;99.90;;;;;;5004832;28;20479;-81
2022/07/30 09:39:43;;;;;;;;;;;21.10;99.90;;;;;;4935296;28;19922;-82
2022/07/30 09:42:18;;;;;;;;;;;21.10;99.90;;;;;;4951243;28;19973;-81
2022/07/30 09:44:46;;;;;;;;;;;21.20;99.90;;;;;;4950508;28;20030;-82
2022/07/30 09:47:31;;;;;;;;;;;21.40;99.90;;;;;;4950028;28;19929;-83
2022/07/30 09:50:08;;;;;;;;;;;21.60;99.90;;;;;;4952496;29;19918;-82
2022/07/30 09:52:34;;;;;;;;;;;21.70;99.90;;;;;;4973204;28;19910;-81
2022/07/30 09:55:00;;;;;;;;;;;21.80;99.90;;;;;;4955210;28;20427;-81
2022/07/30 09:57:28;;;;;;;;;;;21.80;99.90;;;;;;4948487;28;20618;-82
2022/07/30 10:00:23;;;;;;;;;;;21.90;99.90;;;;;;4938335;29;20097;-82
2022/07/30 10:03:01;;;;;;;;;;;21.90;99.90;;;;;;4945484;29;19914;-82
2022/07/30 10:05:55;;;;;;;;;;;21.90;99.90;;;;;;4960512;28;19957;-81
2022/07/30 10:08:41;;;;;;;;;;;21.80;99.90;;;;;;4922678;29;20482;-81
2022/07/30 10:11:11;;;;;;;;;;;21.70;99.90;;;;;;4952943;28;19984;-81
2022/07/30 10:13:37;;;;;;;;;;;21.80;99.90;;;;;;4949703;28;19942;-82
2022/07/30 10:16:04;;;;;;;;;;;21.70;99.90;;;;;;4935457;29;20147;-81
2022/07/30 10:18:30;;;;;;;;;;;21.70;99.90;;;;;;4949045;28;19918;-82
2022/07/30 10:21:14;;;;;;;;;;;21.80;99.90;;;;;;4950887;29;19938;-81
2022/07/30 10:24:07;;;;;;;;;;;21.80;99.90;;;;;;4963164;28;20005;-81
2022/07/30 10:26:53;;;;;;;;;;;22.00;99.90;;;;;;4947113;29;19977;-82
2022/07/30 10:29:39;;;;;;;;;;;22.00;99.90;;;;;;4950956;29;19921;-82
2022/07/30 10:32:04;;;;;;;;;;;22.00;99.90;;;;;;4956980;28;19914;-80
2022/07/30 10:34:31;;;;;;;;;;;22.10;99.90;;;;;;4953833;28;19937;-82
2022/07/30 10:37:00;;;;;;;;;;;22.10;99.90;;;;;;4952278;28;19954;-82
2022/07/30 10:39:30;;;;;;;;;;;22.10;99.90;;;;;;4948127;29;19961;-81
2022/07/30 10:41:56;;;;;;;;;;;22.10;99.90;;;;;;4943885;29;19921;-82
2022/07/30 10:44:25;;;;;;;;;;;22.00;99.90;;;;;;4959824;28;20013;-81
2022/07/30 10:47:02;;;;;;;;;;;21.90;99.90;;;;;;4957962;28;19934;-82
2022/07/30 10:49:27;;;;;;;;;;;21.90;99.90;;;;;;4938809;29;19914;-80
2022/07/30 10:51:56;;;;;;;;;;;22.00;99.90;;;;;;4966229;28;20010;-81
2022/07/30 10:54:32;;;;;;;;;;;22.00;99.90;;;;;;4963023;28;19914;-82
2022/07/30 10:57:05;;;;;;;;;;;22.10;99.90;;;;;;4959136;28;19950;-83
2022/07/30 11:00:00;;;;;;;;;;;22.20;99.90;;;;;;4951874;29;19926;-82
2022/07/30 11:02:27;;;;;;;;;;;22.20;99.90;;;;;;4956840;28;19925;-83
2022/07/30 11:05:12;;;;;;;;;;;22.40;99.90;;;;;;4948181;28;19954;-83
2022/07/30 11:07:37;;;;;;;;;;;22.50;99.90;;;;;;4958677;28;20038;-82
2022/07/30 11:10:03;;;;;;;;;;;22.70;99.90;;;;;;4968055;28;20049;-82
2022/07/30 11:12:41;;;;;;;;;;;22.80;99.90;;;;;;4968840;28;19961;-81
2022/07/30 11:15:30;;;;;;;;;;;23.10;99.90;;;;;;4955618;28;19910;-82
2022/07/30 11:18:01;;;;;;;;;;;23.10;99.90;;;;;;4972115;28;19941;-81
2022/07/30 11:20:28;;;;;;;;;;;23.00;99.90;;;;;;4974008;28;20137;-81
2022/07/30 11:23:06;;;;;;;;;;;23.00;99.90;;;;;;4957464;28;19911;-80
2022/07/30 11:25:32;;;;;;;;;;;22.90;99.90;;;;;;4959421;28;19922;-81
2022/07/30 11:27:59;;;;;;;;;;;22.90;99.90;;;;;;4954874;28;19914;-81
2022/07/30 11:30:28;;;;;;;;;;;22.90;99.90;;;;;;4926956;29;19914;-81
2022/07/30 11:32:53;;;;;;;;;;;22.80;99.90;;;;;;4949559;28;19910;-80
2022/07/30 11:35:25;;;;;;;;;;;22.80;99.90;;;;;;4942395;29;20383;-80
2022/07/30 11:37:57;;;;;;;;;;;22.80;99.90;;;;;;4950402;28;19960;-80
2022/07/30 11:40:24;;;;;;;;;;;22.80;99.90;;;;;;4949598;29;19911;-80
2022/07/30 11:42:50;;;;;;;;;;;23.00;99.90;;;;;;4959628;29;19918;-80
2022/07/30 11:45:16;;;;;;;;;;;23.20;99.90;;;;;;4968311;28;20421;-81
2022/07/30 11:47:47;;;;;;;;;;;23.50;99.90;;;;;;4971573;28;20001;-79
2022/07/30 11:50:32;;;;;;;;;;;23.70;99.90;;;;;;4960043;29;20366;-79
2022/07/30 11:52:59;;;;;;;;;;;23.90;99.90;;;;;;4950612;29;19911;-79
2022/07/30 11:55:31;;;;;;;;;;;24.10;99.90;;;;;;4963587;28;20186;-80
2022/07/30 11:57:58;;;;;;;;;;;24.20;99.90;;;;;;4958751;28;19911;-79
2022/07/30 12:00:24;;;;;;;;;;;24.30;99.90;;;;;;4962020;28;19915;-80
2022/07/30 12:02:50;;;;;;;;;;;24.20;99.90;;;;;;4953363;28;19910;-81
2022/07/30 12:05:23;;;;;;;;;;;24.10;99.90;;;;;;4955434;28;19918;-80
2022/07/30 12:07:49;;;;;;;;;;;23.80;99.90;;;;;;4952629;28;19921;-80
2022/07/30 12:10:19;;;;;;;;;;;23.60;99.90;;;;;;4955978;29;19927;-80
2022/07/30 12:12:45;;;;;;;;;;;23.40;99.90;;;;;;4955868;28;19914;-79
2022/07/30 12:15:26;;;;;;;;;;;23.20;99.90;;;;;;4966054;28;19922;-78
2022/07/30 12:17:52;;;;;;;;;;;23.00;99.90;;;;;;4955315;28;19964;-80
2022/07/30 12:20:18;;;;;;;;;;;22.80;99.90;;;;;;4960811;28;19919;-78
2022/07/30 12:22:44;;;;;;;;;;;22.70;99.90;;;;;;4954279;28;19911;-79
2022/07/30 12:25:10;;;;;;;;;;;22.70;99.90;;;;;;4971271;28;20429;-79
2022/07/30 12:27:36;;;;;;;;;;;22.80;99.90;;;;;;4954301;29;19925;-79
2022/07/30 12:30:03;;;;;;;;;;;23.00;99.90;;;;;;4949090;28;19911;-80
2022/07/30 12:32:30;;;;;;;;;;;23.10;99.90;;;;;;4957806;29;19921;-80
2022/07/30 12:34:56;;;;;;;;;;;23.10;99.90;;;;;;4968360;28;19945;-80
2022/07/30 12:37:22;;;;;;;;;;;23.10;99.90;;;;;;4959142;29;19910;-79
2022/07/30 12:39:48;;;;;;;;;;;23.00;99.90;;;;;;4955959;29;19933;-79
2022/07/30 12:42:18;;;;;;;;;;;22.80;99.90;;;;;;4950179;28;19938;-79
2022/07/30 12:44:43;;;;;;;;;;;22.70;99.90;;;;;;4958069;28;19914;-78
2022/07/30 12:47:20;;;;;;;;;;;22.60;99.90;;;;;;4953051;29;19910;-79
2022/07/30 12:49:46;;;;;;;;;;;22.60;99.90;;;;;;4942386;29;19918;-78
2022/07/30 12:52:21;;;;;;;;;;;22.60;99.90;;;;;;4967367;28;19969;-79
2022/07/30 12:55:01;;;;;;;;;;;22.80;99.90;;;;;;4949193;28;20005;-79
2022/07/30 12:57:27;;;;;;;;;;;23.10;99.90;;;;;;4950311;29;20698;-83
2022/07/30 13:00:00;;;;;;;;;;;23.50;99.90;;;;;;4953309;28;19906;-78
2022/07/30 13:02:29;;;;;;;;;;;23.60;99.90;;;;;;4952031;29;20377;-79
2022/07/30 13:04:55;;;;;;;;;;;23.70;99.90;;;;;;4947417;28;19981;-79
2022/07/30 13:07:20;;;;;;;;;;;23.50;99.90;;;;;;4948592;28;19915;-80
2022/07/30 13:09:46;;;;;;;;;;;23.30;99.90;;;;;;4951214;29;19915;-79
2022/07/30 13:12:12;;;;;;;;;;;22.90;99.90;;;;;;4940600;29;19914;-82
2022/07/30 13:14:38;;;;;;;;;;;22.50;99.90;;;;;;4949156;29;20766;-82
2022/07/30 13:17:04;;;;;;;;;;;22.00;99.90;;;;;;4945349;28;19921;-81
2022/07/30 13:19:30;;;;;;;;;;;21.70;99.90;;;;;;4950832;28;19914;-79
2022/07/30 13:21:56;;;;;;;;;;;21.30;99.90;;;;;;4934216;29;19918;-79
2022/07/30 13:24:21;;;;;;;;;;;21.00;99.90;;;;;;4945421;29;19918;-81
2022/07/30 13:26:47;;;;;;;;;;;20.80;99.90;;;;;;4947287;29;19921;-81
2022/07/30 13:29:13;;;;;;;;;;;20.70;99.90;;;;;;4953018;29;19918;-80
2022/07/30 13:31:39;;;;;;;;;;;20.60;99.90;;;;;;4931994;29;19915;-79
2022/07/30 13:34:05;;;;;;;;;;;20.80;99.90;;;;;;4953573;29;19993;-81
2022/07/30 13:36:31;;;;;;;;;;;20.90;99.90;;;;;;4951714;28;19965;-80
2022/07/30 13:38:56;;;;;;;;;;;21.00;99.90;;;;;;4924400;29;20362;-81
2022/07/30 13:41:22;;;;;;;;;;;21.00;99.90;;;;;;4956779;28;20379;-79
2022/07/30 13:43:48;;;;;;;;;;;21.00;99.90;;;;;;4937210;29;20021;-79
2022/07/30 13:46:13;;;;;;;;;;;20.90;99.90;;;;;;4950564;28;20639;-79
2022/07/30 13:48:39;;;;;;;;;;;20.90;99.90;;;;;;4956676;29;20470;-79
2022/07/30 13:51:05;;;;;;;;;;;20.80;99.90;;;;;;4972826;28;19914;-80
2022/07/30 13:53:30;;;;;;;;;;;20.80;99.90;;;;;;4938747;29;19915;-79
2022/07/30 13:56:00;;;;;;;;;;;20.90;99.90;;;;;;4954005;29;19918;-80
2022/07/30 13:58:26;;;;;;;;;;;21.10;99.90;;;;;;4953714;28;19910;-82
2022/07/30 14:00:52;;;;;;;;;;;21.40;99.90;;;;;;4955643;29;20547;-80
2022/07/30 14:03:17;;;;;;;;;;;21.70;99.90;;;;;;4955866;28;19910;-80
2022/07/30 14:05:43;;;;;;;;;;;21.90;99.90;;;;;;4949931;28;20450;-79
2022/07/30 14:08:10;;;;;;;;;;;22.20;99.90;;;;;;4949849;29;20617;-79
2022/07/30 14:10:36;;;;;;;;;;;22.30;99.90;;;;;;4962192;28;19989;-79
2022/07/30 14:13:03;;;;;;;;;;;22.50;99.90;;;;;;4970039;28;20287;-80
2022/07/30 14:15:32;;;;;;;;;;;22.60;99.90;;;;;;4946497;28;19914;-80
2022/07/30 14:17:58;;;;;;;;;;;22.70;99.90;;;;;;4953557;28;19915;-80
2022/07/30 14:20:24;;;;;;;;;;;22.70;99.90;;;;;;4960640;28;19946;-79
2022/07/30 14:22:50;;;;;;;;;;;22.70;99.90;;;;;;4953554;29;20408;-80
2022/07/30 14:25:15;;;;;;;;;;;22.70;99.90;;;;;;4967788;28;19997;-81
2022/07/30 14:27:41;;;;;;;;;;;22.60;99.90;;;;;;4947142;28;20069;-81
2022/07/30 14:30:08;;;;;;;;;;;22.60;99.90;;;;;;4950212;28;19911;-79
2022/07/30 14:32:34;;;;;;;;;;;22.50;99.90;;;;;;4958280;28;19911;-78
2022/07/30 14:35:00;;;;;;;;;;;22.40;99.90;;;;;;4947183;28;19922;-80
2022/07/30 14:37:25;;;;;;;;;;;22.20;99.90;;;;;;4945540;29;19911;-79
2022/07/30 14:39:51;;;;;;;;;;;22.10;99.90;;;;;;4953023;28;19914;-80
2022/07/30 14:42:16;;;;;;;;;;;21.90;99.90;;;;;;4950628;28;19926;-80
2022/07/30 14:44:42;;;;;;;;;;;21.80;99.90;;;;;;4953169;28;20404;-80